Terminal Aerodrome Forecast
Issued by NWS

Home | Current Version | Previous Version | Text Only | Print | Product List | Glossary On
Versions: 1 2 3 4 5 6 7 8 9 10 11 12 13 14 15 16 17 18 19 20 21 22 23 24 25 26 27 28 29 30 31 32 33 34 35 36 37
000
FTUS41 KRNK 290539
TAFLWB
TAF
KLWB 290539Z 2906/3006 00000KT P6SM SCT040 OVC050
      TEMPO 2910/2913 3SM BR
     FM291600 30005KT P6SM -SHRA SCT025 BKN040
     FM300000 00000KT P6SM SCT250=

USA.gov is the U.S. government's official web portal to all federal, state and local government web resources and services.